sensor_id;sensor_type;location;lat;lon;timestamp;temperature;humidity
29571;DHT22;16814;52.118;11.436;2023-12-20T00:00:42;6.30;99.90
29571;DHT22;16814;52.118;11.436;2023-12-20T00:03:08;6.30;99.90
29571;DHT22;16814;52.118;11.436;2023-12-20T00:05:34;6.30;99.90
29571;DHT22;16814;52.118;11.436;2023-12-20T00:08:01;6.30;99.90
29571;DHT22;16814;52.118;11.436;2023-12-20T00:10:30;6.30;99.90
29571;DHT22;16814;52.118;11.436;2023-12-20T00:12:59;6.30;99.90
29571;DHT22;16814;52.118;11.436;2023-12-20T00:15:26;6.30;99.90
29571;DHT22;16814;52.118;11.436;2023-12-20T00:17:54;6.30;99.90
29571;DHT22;16814;52.118;11.436;2023-12-20T00:20:22;6.40;99.90
29571;DHT22;16814;52.118;11.436;2023-12-20T00:22:49;6.40;99.90
29571;DHT22;16814;52.118;11.436;2023-12-20T00:25:14;6.40;99.90
29571;DHT22;16814;52.118;11.436;2023-12-20T00:27:41;6.40;99.90
29571;DHT22;16814;52.118;11.436;2023-12-20T00:30:09;6.40;99.90
29571;DHT22;16814;52.118;11.436;2023-12-20T00:32:37;6.40;99.90
29571;DHT22;16814;52.118;11.436;2023-12-20T00:35:03;6.40;99.90
29571;DHT22;16814;52.118;11.436;2023-12-20T00:37:30;6.40;99.90
29571;DHT22;16814;52.118;11.436;2023-12-20T00:39:56;6.40;99.90
29571;DHT22;16814;52.118;11.436;2023-12-20T00:42:21;6.40;99.90
29571;DHT22;16814;52.118;11.436;2023-12-20T00:44:48;6.40;99.90
29571;DHT22;16814;52.118;11.436;2023-12-20T00:47:13;6.50;99.90
29571;DHT22;16814;52.118;11.436;2023-12-20T00:49:39;6.50;99.90
29571;DHT22;16814;52.118;11.436;2023-12-20T00:52:07;6.40;99.90
29571;DHT22;16814;52.118;11.436;2023-12-20T00:54:33;6.40;99.90
29571;DHT22;16814;52.118;11.436;2023-12-20T00:57:00;6.40;99.90
29571;DHT22;16814;52.118;11.436;2023-12-20T00:59:25;6.40;99.90
29571;DHT22;16814;52.118;11.436;2023-12-20T01:01:51;6.40;99.90
29571;DHT22;16814;52.118;11.436;2023-12-20T01:04:17;6.40;99.90
29571;DHT22;16814;52.118;11.436;2023-12-20T01:06:45;6.40;99.90
29571;DHT22;16814;52.118;11.436;2023-12-20T01:09:12;6.30;99.90
29571;DHT22;16814;52.118;11.436;2023-12-20T01:11:38;6.40;99.90
29571;DHT22;16814;52.118;11.436;2023-12-20T01:14:04;6.40;99.90
29571;DHT22;16814;52.118;11.436;2023-12-20T01:16:31;6.40;99.90
29571;DHT22;16814;52.118;11.436;2023-12-20T01:18:58;6.40;99.90
29571;DHT22;16814;52.118;11.436;2023-12-20T01:21:24;6.40;99.90
29571;DHT22;16814;52.118;11.436;2023-12-20T01:23:50;6.40;99.90
29571;DHT22;16814;52.118;11.436;2023-12-20T01:26:17;6.40;99.90
29571;DHT22;16814;52.118;11.436;2023-12-20T01:28:43;6.40;99.90
29571;DHT22;16814;52.118;11.436;2023-12-20T01:31:10;6.50;99.90
29571;DHT22;16814;52.118;11.436;2023-12-20T01:33:38;6.50;99.90
29571;DHT22;16814;52.118;11.436;2023-12-20T01:36:07;6.50;99.90
29571;DHT22;16814;52.118;11.436;2023-12-20T01:38:35;6.50;99.90
29571;DHT22;16814;52.118;11.436;2023-12-20T01:41:02;6.50;99.90
29571;DHT22;16814;52.118;11.436;2023-12-20T01:43:28;6.50;99.90
29571;DHT22;16814;52.118;11.436;2023-12-20T01:45:56;6.50;99.90
29571;DHT22;16814;52.118;11.436;2023-12-20T01:48:25;6.50;99.90
29571;DHT22;16814;52.118;11.436;2023-12-20T01:50:54;6.50;99.90
29571;DHT22;16814;52.118;11.436;2023-12-20T01:53:25;6.50;99.90
29571;DHT22;16814;52.118;11.436;2023-12-20T01:55:52;6.40;99.90
29571;DHT22;16814;52.118;11.436;2023-12-20T01:58:21;6.20;99.90
29571;DHT22;16814;52.118;11.436;2023-12-20T02:00:49;6.10;99.90
29571;DHT22;16814;52.118;11.436;2023-12-20T02:03:18;6.00;99.90
29571;DHT22;16814;52.118;11.436;2023-12-20T02:05:44;6.00;99.90
29571;DHT22;16814;52.118;11.436;2023-12-20T02:08:12;6.10;99.90
29571;DHT22;16814;52.118;11.436;2023-12-20T02:10:40;6.20;99.90
29571;DHT22;16814;52.118;11.436;2023-12-20T02:13:08;6.30;99.90
29571;DHT22;16814;52.118;11.436;2023-12-20T02:15:43;6.30;99.90
29571;DHT22;16814;52.118;11.436;2023-12-20T02:18:10;6.30;99.90
29571;DHT22;16814;52.118;11.436;2023-12-20T02:20:37;6.40;99.90
29571;DHT22;16814;52.118;11.436;2023-12-20T02:23:03;6.40;99.90
29571;DHT22;16814;52.118;11.436;2023-12-20T02:25:35;6.30;99.90
29571;DHT22;16814;52.118;11.436;2023-12-20T02:28:05;6.30;99.90
29571;DHT22;16814;52.118;11.436;2023-12-20T02:30:39;6.30;99.90
29571;DHT22;16814;52.118;11.436;2023-12-20T02:33:08;6.30;99.90
29571;DHT22;16814;52.118;11.436;2023-12-20T02:35:37;6.30;99.90
29571;DHT22;16814;52.118;11.436;2023-12-20T02:38:05;6.30;99.90
29571;DHT22;16814;52.118;11.436;2023-12-20T02:40:31;6.30;99.90
29571;DHT22;16814;52.118;11.436;2023-12-20T02:42:58;6.20;99.90
29571;DHT22;16814;52.118;11.436;2023-12-20T02:45:26;6.20;99.90
29571;DHT22;16814;52.118;11.436;2023-12-20T02:47:53;6.30;99.90
29571;DHT22;16814;52.118;11.436;2023-12-20T02:50:18;6.20;99.90
29571;DHT22;16814;52.118;11.436;2023-12-20T02:52:50;6.20;99.90
29571;DHT22;16814;52.118;11.436;2023-12-20T02:55:18;6.20;99.90
29571;DHT22;16814;52.118;11.436;2023-12-20T02:57:45;6.20;99.90
29571;DHT22;16814;52.118;11.436;2023-12-20T03:00:11;6.20;99.90
29571;DHT22;16814;52.118;11.436;2023-12-20T03:02:38;6.20;99.90
29571;DHT22;16814;52.118;11.436;2023-12-20T03:05:03;6.10;99.90
29571;DHT22;16814;52.118;11.436;2023-12-20T03:07:30;6.10;99.90
29571;DHT22;16814;52.118;11.436;2023-12-20T03:09:55;6.10;99.90
29571;DHT22;16814;52.118;11.436;2023-12-20T03:12:21;6.00;99.90
29571;DHT22;16814;52.118;11.436;2023-12-20T03:14:48;6.00;99.90
29571;DHT22;16814;52.118;11.436;2023-12-20T03:17:15;6.00;99.90
29571;DHT22;16814;52.118;11.436;2023-12-20T03:19:43;5.90;99.90
29571;DHT22;16814;52.118;11.436;2023-12-20T03:22:10;5.90;99.90
29571;DHT22;16814;52.118;11.436;2023-12-20T03:24:35;5.90;99.90
29571;DHT22;16814;52.118;11.436;2023-12-20T03:27:01;5.90;99.90
29571;DHT22;16814;52.118;11.436;2023-12-20T03:29:28;5.90;99.90
29571;DHT22;16814;52.118;11.436;2023-12-20T03:31:55;5.90;99.90
29571;DHT22;16814;52.118;11.436;2023-12-20T03:34:22;5.90;99.90
29571;DHT22;16814;52.118;11.436;2023-12-20T03:36:48;5.90;99.90
29571;DHT22;16814;52.118;11.436;2023-12-20T03:39:15;5.80;99.90
29571;DHT22;16814;52.118;11.436;2023-12-20T03:41:42;5.80;99.90
29571;DHT22;16814;52.118;11.436;2023-12-20T03:44:10;5.70;99.90
29571;DHT22;16814;52.118;11.436;2023-12-20T03:46:36;5.70;99.90
29571;DHT22;16814;52.118;11.436;2023-12-20T03:49:03;5.70;99.90
29571;DHT22;16814;52.118;11.436;2023-12-20T03:51:29;5.70;99.90
29571;DHT22;16814;52.118;11.436;2023-12-20T03:53:57;5.60;99.90
29571;DHT22;16814;52.118;11.436;2023-12-20T03:56:23;5.60;99.90
29571;DHT22;16814;52.118;11.436;2023-12-20T03:58:48;5.60;99.90
29571;DHT22;16814;52.118;11.436;2023-12-20T04:01:15;5.60;99.90
29571;DHT22;16814;52.118;11.436;2023-12-20T04:03:43;5.50;99.90
29571;DHT22;16814;52.118;11.436;2023-12-20T04:06:10;5.50;99.90
29571;DHT22;16814;52.118;11.436;2023-12-20T04:08:42;5.50;99.90
29571;DHT22;16814;52.118;11.436;2023-12-20T04:11:09;5.40;99.90
29571;DHT22;16814;52.118;11.436;2023-12-20T04:13:36;5.40;99.90
29571;DHT22;16814;52.118;11.436;2023-12-20T04:16:03;5.40;99.90
29571;DHT22;16814;52.118;11.436;2023-12-20T04:18:30;5.30;99.90
29571;DHT22;16814;52.118;11.436;2023-12-20T04:20:57;5.30;99.90
29571;DHT22;16814;52.118;11.436;2023-12-20T04:23:25;5.30;99.90
29571;DHT22;16814;52.118;11.436;2023-12-20T04:25:51;5.30;99.90
29571;DHT22;16814;52.118;11.436;2023-12-20T04:28:18;5.20;99.90
29571;DHT22;16814;52.118;11.436;2023-12-20T04:30:44;5.20;99.90
29571;DHT22;16814;52.118;11.436;2023-12-20T04:33:11;5.10;99.90
29571;DHT22;16814;52.118;11.436;2023-12-20T04:35:36;5.20;99.90
29571;DHT22;16814;52.118;11.436;2023-12-20T04:38:03;5.10;99.90
29571;DHT22;16814;52.118;11.436;2023-12-20T04:40:30;5.10;99.90
29571;DHT22;16814;52.118;11.436;2023-12-20T04:42:57;5.10;99.90
29571;DHT22;16814;52.118;11.436;2023-12-20T04:45:25;5.10;99.90
29571;DHT22;16814;52.118;11.436;2023-12-20T04:47:52;5.10;99.90
29571;DHT22;16814;52.118;11.436;2023-12-20T04:50:18;5.10;99.90
29571;DHT22;16814;52.118;11.436;2023-12-20T04:52:46;5.10;99.90
29571;DHT22;16814;52.118;11.436;2023-12-20T04:55:12;5.00;99.90
29571;DHT22;16814;52.118;11.436;2023-12-20T04:57:40;5.00;99.90
29571;DHT22;16814;52.118;11.436;2023-12-20T05:00:09;5.00;99.90
29571;DHT22;16814;52.118;11.436;2023-12-20T05:02:36;4.90;99.90
29571;DHT22;16814;52.118;11.436;2023-12-20T05:05:04;4.90;99.90
29571;DHT22;16814;52.118;11.436;2023-12-20T05:07:30;4.90;99.90
29571;DHT22;16814;52.118;11.436;2023-12-20T05:09:57;4.90;99.90
29571;DHT22;16814;52.118;11.436;2023-12-20T05:12:23;4.90;99.90
29571;DHT22;16814;52.118;11.436;2023-12-20T05:14:49;4.90;99.90
29571;DHT22;16814;52.118;11.436;2023-12-20T05:17:15;4.80;99.90
29571;DHT22;16814;52.118;11.436;2023-12-20T05:19:42;4.80;99.90
29571;DHT22;16814;52.118;11.436;2023-12-20T05:22:09;4.80;99.90
29571;DHT22;16814;52.118;11.436;2023-12-20T05:24:35;4.80;99.90
29571;DHT22;16814;52.118;11.436;2023-12-20T05:27:02;4.80;99.90
29571;DHT22;16814;52.118;11.436;2023-12-20T05:29:28;4.70;99.90
29571;DHT22;16814;52.118;11.436;2023-12-20T05:31:57;4.80;99.90
29571;DHT22;16814;52.118;11.436;2023-12-20T05:34:23;4.70;99.90
29571;DHT22;16814;52.118;11.436;2023-12-20T05:36:50;4.80;99.90
29571;DHT22;16814;52.118;11.436;2023-12-20T05:39:17;4.80;99.90
29571;DHT22;16814;52.118;11.436;2023-12-20T05:41:42;4.80;99.90
29571;DHT22;16814;52.118;11.436;2023-12-20T05:44:10;4.90;99.90
29571;DHT22;16814;52.118;11.436;2023-12-20T05:46:36;4.90;99.90
29571;DHT22;16814;52.118;11.436;2023-12-20T05:49:04;4.90;99.90
29571;DHT22;16814;52.118;11.436;2023-12-20T05:51:30;4.90;99.90
29571;DHT22;16814;52.118;11.436;2023-12-20T05:53:57;5.00;99.90
29571;DHT22;16814;52.118;11.436;2023-12-20T05:56:24;5.00;99.90
29571;DHT22;16814;52.118;11.436;2023-12-20T05:58:51;5.00;99.90
29571;DHT22;16814;52.118;11.436;2023-12-20T06:01:19;5.00;99.90
29571;DHT22;16814;52.118;11.436;2023-12-20T06:03:47;5.00;99.90
29571;DHT22;16814;52.118;11.436;2023-12-20T06:06:14;5.00;99.90
29571;DHT22;16814;52.118;11.436;2023-12-20T06:08:42;5.10;99.90
29571;DHT22;16814;52.118;11.436;2023-12-20T06:11:10;5.10;99.90
29571;DHT22;16814;52.118;11.436;2023-12-20T06:13:38;5.10;99.90
29571;DHT22;16814;52.118;11.436;2023-12-20T06:16:07;5.10;99.90
29571;DHT22;16814;52.118;11.436;2023-12-20T06:18:35;5.00;99.90
29571;DHT22;16814;52.118;11.436;2023-12-20T06:21:05;5.10;99.90
29571;DHT22;16814;52.118;11.436;2023-12-20T06:23:33;5.10;99.90
29571;DHT22;16814;52.118;11.436;2023-12-20T06:26:00;5.10;99.90
29571;DHT22;16814;52.118;11.436;2023-12-20T06:28:27;5.10;99.90
29571;DHT22;16814;52.118;11.436;2023-12-20T06:30:55;5.10;99.90
29571;DHT22;16814;52.118;11.436;2023-12-20T06:33:28;5.10;99.90
29571;DHT22;16814;52.118;11.436;2023-12-20T06:35:54;5.10;99.90
29571;DHT22;16814;52.118;11.436;2023-12-20T06:38:21;5.10;99.90
29571;DHT22;16814;52.118;11.436;2023-12-20T06:40:48;5.10;99.90
29571;DHT22;16814;52.118;11.436;2023-12-20T06:43:16;5.10;99.90
29571;DHT22;16814;52.118;11.436;2023-12-20T06:45:43;5.10;99.90
29571;DHT22;16814;52.118;11.436;2023-12-20T06:48:10;5.10;99.90
29571;DHT22;16814;52.118;11.436;2023-12-20T06:51:01;5.10;99.90
29571;DHT22;16814;52.118;11.436;2023-12-20T06:53:30;5.10;99.90
29571;DHT22;16814;52.118;11.436;2023-12-20T06:56:00;5.10;99.90
29571;DHT22;16814;52.118;11.436;2023-12-20T06:58:29;5.10;99.90
29571;DHT22;16814;52.118;11.436;2023-12-20T07:00:56;5.10;99.90
29571;DHT22;16814;52.118;11.436;2023-12-20T07:03:25;5.10;99.90
29571;DHT22;16814;52.118;11.436;2023-12-20T07:05:51;5.20;99.90
29571;DHT22;16814;52.118;11.436;2023-12-20T07:08:19;5.20;99.90
29571;DHT22;16814;52.118;11.436;2023-12-20T07:10:46;5.20;99.90
29571;DHT22;16814;52.118;11.436;2023-12-20T07:13:13;5.20;99.90
29571;DHT22;16814;52.118;11.436;2023-12-20T07:15:38;5.10;99.90
29571;DHT22;16814;52.118;11.436;2023-12-20T07:18:08;5.20;99.90
29571;DHT22;16814;52.118;11.436;2023-12-20T07:20:35;5.20;99.90
29571;DHT22;16814;52.118;11.436;2023-12-20T07:23:02;5.20;99.90
29571;DHT22;16814;52.118;11.436;2023-12-20T07:25:30;5.20;99.90
29571;DHT22;16814;52.118;11.436;2023-12-20T07:27:58;5.20;99.90
29571;DHT22;16814;52.118;11.436;2023-12-20T07:30:24;5.20;99.90
29571;DHT22;16814;52.118;11.436;2023-12-20T07:32:51;5.30;99.90
29571;DHT22;16814;52.118;11.436;2023-12-20T07:35:20;5.30;99.90
29571;DHT22;16814;52.118;11.436;2023-12-20T07:37:47;5.30;99.90
29571;DHT22;16814;52.118;11.436;2023-12-20T07:40:15;5.30;99.90
29571;DHT22;16814;52.118;11.436;2023-12-20T07:42:44;5.30;99.90
29571;DHT22;16814;52.118;11.436;2023-12-20T07:45:11;5.30;99.90
29571;DHT22;16814;52.118;11.436;2023-12-20T07:47:38;5.40;99.90
29571;DHT22;16814;52.118;11.436;2023-12-20T07:50:06;5.30;99.90
29571;DHT22;16814;52.118;11.436;2023-12-20T07:52:35;5.40;99.90
29571;DHT22;16814;52.118;11.436;2023-12-20T07:55:00;5.40;99.90
29571;DHT22;16814;52.118;11.436;2023-12-20T07:57:30;5.40;99.90
29571;DHT22;16814;52.118;11.436;2023-12-20T07:59:57;5.40;99.90
29571;DHT22;16814;52.118;11.436;2023-12-20T08:02:25;5.40;99.90
29571;DHT22;16814;52.118;11.436;2023-12-20T08:04:50;5.40;99.90
29571;DHT22;16814;52.118;11.436;2023-12-20T08:07:16;5.40;99.90
29571;DHT22;16814;52.118;11.436;2023-12-20T08:09:41;5.40;99.90
29571;DHT22;16814;52.118;11.436;2023-12-20T08:12:10;5.50;99.90
29571;DHT22;16814;52.118;11.436;2023-12-20T08:14:36;5.40;99.90
29571;DHT22;16814;52.118;11.436;2023-12-20T08:17:03;5.40;99.90
29571;DHT22;16814;52.118;11.436;2023-12-20T08:19:31;5.50;99.90
29571;DHT22;16814;52.118;11.436;2023-12-20T08:21:58;5.50;99.90
29571;DHT22;16814;52.118;11.436;2023-12-20T08:24:25;5.50;99.90
29571;DHT22;16814;52.118;11.436;2023-12-20T08:26:51;5.60;99.90
29571;DHT22;16814;52.118;11.436;2023-12-20T08:29:16;5.60;99.90
29571;DHT22;16814;52.118;11.436;2023-12-20T08:31:43;5.60;99.90
29571;DHT22;16814;52.118;11.436;2023-12-20T08:34:09;5.60;99.90
29571;DHT22;16814;52.118;11.436;2023-12-20T08:36:38;5.60;99.90
29571;DHT22;16814;52.118;11.436;2023-12-20T08:39:06;5.60;99.90
29571;DHT22;16814;52.118;11.436;2023-12-20T08:41:36;5.60;99.90
29571;DHT22;16814;52.118;11.436;2023-12-20T08:44:02;5.60;99.90
29571;DHT22;16814;52.118;11.436;2023-12-20T08:46:29;5.60;99.90
29571;DHT22;16814;52.118;11.436;2023-12-20T08:48:56;5.60;99.90
29571;DHT22;16814;52.118;11.436;2023-12-20T08:51:22;5.60;99.90
29571;DHT22;16814;52.118;11.436;2023-12-20T08:53:49;5.60;99.90
29571;DHT22;16814;52.118;11.436;2023-12-20T08:56:17;5.60;99.90
29571;DHT22;16814;52.118;11.436;2023-12-20T08:58:45;5.60;99.90
29571;DHT22;16814;52.118;11.436;2023-12-20T09:01:13;5.60;99.90
29571;DHT22;16814;52.118;11.436;2023-12-20T09:03:39;5.60;99.90
29571;DHT22;16814;52.118;11.436;2023-12-20T09:06:05;5.60;99.90
29571;DHT22;16814;52.118;11.436;2023-12-20T09:08:32;5.70;99.90
29571;DHT22;16814;52.118;11.436;2023-12-20T09:11:00;5.70;99.90
29571;DHT22;16814;52.118;11.436;2023-12-20T09:13:28;5.70;99.90
29571;DHT22;16814;52.118;11.436;2023-12-20T09:15:58;5.70;99.90
29571;DHT22;16814;52.118;11.436;2023-12-20T09:18:26;5.70;99.90
29571;DHT22;16814;52.118;11.436;2023-12-20T09:20:54;5.70;99.90
29571;DHT22;16814;52.118;11.436;2023-12-20T09:23:25;5.70;99.90
29571;DHT22;16814;52.118;11.436;2023-12-20T09:25:52;5.80;99.90
29571;DHT22;16814;52.118;11.436;2023-12-20T09:28:17;5.80;99.90
29571;DHT22;16814;52.118;11.436;2023-12-20T09:30:44;5.70;99.90
29571;DHT22;16814;52.118;11.436;2023-12-20T09:33:19;5.70;99.90
29571;DHT22;16814;52.118;11.436;2023-12-20T09:35:45;5.70;99.90
29571;DHT22;16814;52.118;11.436;2023-12-20T09:38:11;5.70;99.90
29571;DHT22;16814;52.118;11.436;2023-12-20T09:40:41;5.70;99.90
29571;DHT22;16814;52.118;11.436;2023-12-20T09:43:19;5.70;99.90
29571;DHT22;16814;52.118;11.436;2023-12-20T09:45:47;5.70;99.90
29571;DHT22;16814;52.118;11.436;2023-12-20T09:48:22;5.70;99.90
29571;DHT22;16814;52.118;11.436;2023-12-20T09:50:51;5.80;99.90
29571;DHT22;16814;52.118;11.436;2023-12-20T09:53:22;5.80;99.90
29571;DHT22;16814;52.118;11.436;2023-12-20T09:55:58;5.90;99.90
29571;DHT22;16814;52.118;11.436;2023-12-20T09:58:29;5.90;99.90
29571;DHT22;16814;52.118;11.436;2023-12-20T10:00:57;5.90;99.90
29571;DHT22;16814;52.118;11.436;2023-12-20T10:03:25;5.90;99.90
29571;DHT22;16814;52.118;11.436;2023-12-20T10:06:11;5.90;99.90
29571;DHT22;16814;52.118;11.436;2023-12-20T10:08:40;5.90;99.90
29571;DHT22;16814;52.118;11.436;2023-12-20T10:11:07;5.90;99.90
29571;DHT22;16814;52.118;11.436;2023-12-20T10:13:38;6.00;99.90
29571;DHT22;16814;52.118;11.436;2023-12-20T10:16:06;6.00;99.90
29571;DHT22;16814;52.118;11.436;2023-12-20T10:18:47;6.10;99.90
29571;DHT22;16814;52.118;11.436;2023-12-20T10:21:15;6.10;99.90
29571;DHT22;16814;52.118;11.436;2023-12-20T10:23:42;6.10;99.90
29571;DHT22;16814;52.118;11.436;2023-12-20T10:26:25;6.20;99.90
29571;DHT22;16814;52.118;11.436;2023-12-20T10:28:56;6.20;99.90
29571;DHT22;16814;52.118;11.436;2023-12-20T10:31:37;6.20;99.90
29571;DHT22;16814;52.118;11.436;2023-12-20T10:34:14;6.20;99.90
29571;DHT22;16814;52.118;11.436;2023-12-20T10:36:40;6.20;99.90
29571;DHT22;16814;52.118;11.436;2023-12-20T10:39:10;6.20;99.90
29571;DHT22;16814;52.118;11.436;2023-12-20T10:41:38;6.20;99.90
29571;DHT22;16814;52.118;11.436;2023-12-20T10:44:11;6.20;99.90
29571;DHT22;16814;52.118;11.436;2023-12-20T10:46:39;6.30;99.90
29571;DHT22;16814;52.118;11.436;2023-12-20T10:49:08;6.30;99.90
29571;DHT22;16814;52.118;11.436;2023-12-20T10:51:40;6.30;99.90
29571;DHT22;16814;52.118;11.436;2023-12-20T10:54:06;6.30;99.90
29571;DHT22;16814;52.118;11.436;2023-12-20T10:56:38;6.40;99.90
29571;DHT22;16814;52.118;11.436;2023-12-20T10:59:06;6.40;99.90
29571;DHT22;16814;52.118;11.436;2023-12-20T11:01:41;6.40;99.90
29571;DHT22;16814;52.118;11.436;2023-12-20T11:04:31;6.40;99.90
29571;DHT22;16814;52.118;11.436;2023-12-20T11:07:24;6.40;99.90
29571;DHT22;16814;52.118;11.436;2023-12-20T11:10:03;6.40;99.90
29571;DHT22;16814;52.118;11.436;2023-12-20T11:12:47;6.50;99.90
29571;DHT22;16814;52.118;11.436;2023-12-20T11:15:15;6.50;99.90
29571;DHT22;16814;52.118;11.436;2023-12-20T11:17:44;6.50;99.90
29571;DHT22;16814;52.118;11.436;2023-12-20T11:20:12;6.50;99.90
29571;DHT22;16814;52.118;11.436;2023-12-20T11:22:40;6.50;99.90
29571;DHT22;16814;52.118;11.436;2023-12-20T11:25:17;6.50;99.90
29571;DHT22;16814;52.118;11.436;2023-12-20T11:28:08;6.50;99.90
29571;DHT22;16814;52.118;11.436;2023-12-20T11:30:46;6.50;99.90
29571;DHT22;16814;52.118;11.436;2023-12-20T11:33:15;6.50;99.90
29571;DHT22;16814;52.118;11.436;2023-12-20T11:35:41;6.40;99.90
29571;DHT22;16814;52.118;11.436;2023-12-20T11:38:12;6.50;99.90
29571;DHT22;16814;52.118;11.436;2023-12-20T11:40:41;6.60;99.90
29571;DHT22;16814;52.118;11.436;2023-12-20T11:43:08;6.60;99.90
29571;DHT22;16814;52.118;11.436;2023-12-20T11:45:35;6.70;99.90
29571;DHT22;16814;52.118;11.436;2023-12-20T11:48:03;6.70;99.90
29571;DHT22;16814;52.118;11.436;2023-12-20T11:50:30;6.70;99.90
29571;DHT22;16814;52.118;11.436;2023-12-20T11:52:58;6.70;99.90
29571;DHT22;16814;52.118;11.436;2023-12-20T11:55:24;6.70;99.90
29571;DHT22;16814;52.118;11.436;2023-12-20T11:57:50;6.70;99.90
29571;DHT22;16814;52.118;11.436;2023-12-20T12:00:19;6.70;99.90
29571;DHT22;16814;52.118;11.436;2023-12-20T12:02:57;6.70;99.90
29571;DHT22;16814;52.118;11.436;2023-12-20T12:05:24;6.70;99.90
29571;DHT22;16814;52.118;11.436;2023-12-20T12:07:49;6.70;99.90
29571;DHT22;16814;52.118;11.436;2023-12-20T12:10:15;6.60;99.90
29571;DHT22;16814;52.118;11.436;2023-12-20T12:12:41;6.60;99.90
29571;DHT22;16814;52.118;11.436;2023-12-20T12:15:08;6.70;99.90
29571;DHT22;16814;52.118;11.436;2023-12-20T12:17:34;6.60;99.90
29571;DHT22;16814;52.118;11.436;2023-12-20T12:20:08;6.60;99.90
29571;DHT22;16814;52.118;11.436;2023-12-20T12:22:35;6.60;99.90
29571;DHT22;16814;52.118;11.436;2023-12-20T12:25:14;6.60;99.90
29571;DHT22;16814;52.118;11.436;2023-12-20T12:27:42;6.60;99.90
29571;DHT22;16814;52.118;11.436;2023-12-20T12:30:10;6.50;99.90
29571;DHT22;16814;52.118;11.436;2023-12-20T12:32:39;6.50;99.90
29571;DHT22;16814;52.118;11.436;2023-12-20T12:35:07;6.50;99.90
29571;DHT22;16814;52.118;11.436;2023-12-20T12:37:39;6.50;99.90
29571;DHT22;16814;52.118;11.436;2023-12-20T12:40:14;6.50;99.90
29571;DHT22;16814;52.118;11.436;2023-12-20T12:42:41;6.40;99.90
29571;DHT22;16814;52.118;11.436;2023-12-20T12:45:08;6.40;99.90
29571;DHT22;16814;52.118;11.436;2023-12-20T12:47:35;6.40;99.90
29571;DHT22;16814;52.118;11.436;2023-12-20T12:50:03;6.40;99.90
29571;DHT22;16814;52.118;11.436;2023-12-20T12:52:30;6.30;99.90
29571;DHT22;16814;52.118;11.436;2023-12-20T12:54:56;6.30;99.90
29571;DHT22;16814;52.118;11.436;2023-12-20T12:57:22;6.30;99.90
29571;DHT22;16814;52.118;11.436;2023-12-20T12:59:50;6.30;99.90
29571;DHT22;16814;52.118;11.436;2023-12-20T13:02:18;6.30;99.90
29571;DHT22;16814;52.118;11.436;2023-12-20T13:04:45;6.30;99.90
29571;DHT22;16814;52.118;11.436;2023-12-20T13:07:14;6.20;99.90
29571;DHT22;16814;52.118;11.436;2023-12-20T13:09:40;6.20;99.90
29571;DHT22;16814;52.118;11.436;2023-12-20T13:12:08;6.20;99.90
29571;DHT22;16814;52.118;11.436;2023-12-20T13:14:35;6.20;99.90
29571;DHT22;16814;52.118;11.436;2023-12-20T13:17:07;6.20;99.90
29571;DHT22;16814;52.118;11.436;2023-12-20T13:19:33;6.20;99.90
29571;DHT22;16814;52.118;11.436;2023-12-20T13:22:00;6.20;99.90
29571;DHT22;16814;52.118;11.436;2023-12-20T13:24:28;6.10;99.90
29571;DHT22;16814;52.118;11.436;2023-12-20T13:26:55;6.10;99.90
29571;DHT22;16814;52.118;11.436;2023-12-20T13:29:20;6.10;99.90
29571;DHT22;16814;52.118;11.436;2023-12-20T13:31:47;6.10;99.90
29571;DHT22;16814;52.118;11.436;2023-12-20T13:34:14;6.10;99.90
29571;DHT22;16814;52.118;11.436;2023-12-20T13:36:39;6.10;99.90
29571;DHT22;16814;52.118;11.436;2023-12-20T13:39:07;6.10;99.90
29571;DHT22;16814;52.118;11.436;2023-12-20T13:41:34;6.10;99.90
29571;DHT22;16814;52.118;11.436;2023-12-20T13:44:01;6.10;99.90
29571;DHT22;16814;52.118;11.436;2023-12-20T13:46:30;6.10;99.90
29571;DHT22;16814;52.118;11.436;2023-12-20T13:48:57;6.10;99.90
29571;DHT22;16814;52.118;11.436;2023-12-20T13:51:28;6.10;99.90
29571;DHT22;16814;52.118;11.436;2023-12-20T13:53:55;6.00;99.90
29571;DHT22;16814;52.118;11.436;2023-12-20T13:56:22;6.00;99.90
29571;DHT22;16814;52.118;11.436;2023-12-20T13:58:50;6.00;99.90
29571;DHT22;16814;52.118;11.436;2023-12-20T14:01:17;6.00;99.90
29571;DHT22;16814;52.118;11.436;2023-12-20T14:03:44;6.00;99.90
29571;DHT22;16814;52.118;11.436;2023-12-20T14:06:10;5.90;99.90
29571;DHT22;16814;52.118;11.436;2023-12-20T14:08:37;5.80;99.90
29571;DHT22;16814;52.118;11.436;2023-12-20T14:11:04;5.80;99.90
29571;DHT22;16814;52.118;11.436;2023-12-20T14:13:30;5.80;99.90
29571;DHT22;16814;52.118;11.436;2023-12-20T14:15:57;5.80;99.90
29571;DHT22;16814;52.118;11.436;2023-12-20T14:18:24;5.70;99.90
29571;DHT22;16814;52.118;11.436;2023-12-20T14:20:52;5.70;99.90
29571;DHT22;16814;52.118;11.436;2023-12-20T14:23:20;5.60;99.90
29571;DHT22;16814;52.118;11.436;2023-12-20T14:25:45;5.60;99.90
29571;DHT22;16814;52.118;11.436;2023-12-20T14:28:12;5.60;99.90
29571;DHT22;16814;52.118;11.436;2023-12-20T14:30:41;5.60;99.90
29571;DHT22;16814;52.118;11.436;2023-12-20T14:33:08;5.60;99.90
29571;DHT22;16814;52.118;11.436;2023-12-20T14:35:34;5.50;99.90
29571;DHT22;16814;52.118;11.436;2023-12-20T14:38:03;5.50;99.90
29571;DHT22;16814;52.118;11.436;2023-12-20T14:40:28;5.50;99.90
29571;DHT22;16814;52.118;11.436;2023-12-20T14:42:58;5.50;99.90
29571;DHT22;16814;52.118;11.436;2023-12-20T14:45:24;5.40;99.90
29571;DHT22;16814;52.118;11.436;2023-12-20T14:47:50;5.40;99.90
29571;DHT22;16814;52.118;11.436;2023-12-20T14:50:16;5.30;99.90
29571;DHT22;16814;52.118;11.436;2023-12-20T14:52:48;5.30;99.90
29571;DHT22;16814;52.118;11.436;2023-12-20T14:55:15;5.30;99.90
29571;DHT22;16814;52.118;11.436;2023-12-20T14:57:42;5.40;99.90
29571;DHT22;16814;52.118;11.436;2023-12-20T15:00:10;5.30;99.90
29571;DHT22;16814;52.118;11.436;2023-12-20T15:02:43;5.30;99.90
29571;DHT22;16814;52.118;11.436;2023-12-20T15:05:09;5.40;99.90
29571;DHT22;16814;52.118;11.436;2023-12-20T15:07:35;5.30;99.90
29571;DHT22;16814;52.118;11.436;2023-12-20T15:10:02;5.40;99.90
29571;DHT22;16814;52.118;11.436;2023-12-20T15:12:28;5.30;99.90
29571;DHT22;16814;52.118;11.436;2023-12-20T15:14:58;5.50;99.90
29571;DHT22;16814;52.118;11.436;2023-12-20T15:17:24;5.30;99.90
29571;DHT22;16814;52.118;11.436;2023-12-20T15:19:52;5.30;99.90
29571;DHT22;16814;52.118;11.436;2023-12-20T15:22:20;5.30;99.90
29571;DHT22;16814;52.118;11.436;2023-12-20T15:24:48;5.30;99.90
29571;DHT22;16814;52.118;11.436;2023-12-20T15:27:16;5.30;99.90
29571;DHT22;16814;52.118;11.436;2023-12-20T15:29:44;5.20;99.90
29571;DHT22;16814;52.118;11.436;2023-12-20T15:32:09;5.30;99.90
29571;DHT22;16814;52.118;11.436;2023-12-20T15:34:37;5.30;99.90